createdAt,value
2023-04-05T00:00:41.985Z,99580.00
2023-04-05T00:03:28.944Z,99580.00
2023-04-05T00:06:16.655Z,99581.59
2023-04-05T00:09:03.757Z,99580.00
2023-04-05T00:11:49.094Z,99575.22
2023-04-05T00:14:34.479Z,99570.88
2023-04-05T00:17:19.611Z,99570.88
2023-04-05T00:20:08.100Z,99575.22
2023-04-05T00:22:53.812Z,99568.91
2023-04-05T00:25:39.096Z,99561.78
2023-04-05T00:28:24.560Z,99560.97
2023-04-05T00:31:09.968Z,99562.56
2023-04-05T00:33:55.316Z,99558.19
2023-04-05T00:36:40.580Z,99560.97
2023-04-05T00:39:25.930Z,99558.19
2023-04-05T00:42:11.759Z,99552.63
2023-04-05T00:44:57.432Z,99548.66
2023-04-05T00:47:43.625Z,99554.22
2023-04-05T00:50:30.930Z,99548.66
2023-04-05T00:53:19.046Z,99541.53
2023-04-05T00:56:04.775Z,99544.31
2023-04-05T00:58:52.230Z,99544.31
2023-04-05T01:01:40.580Z,99545.13
2023-04-05T01:04:28.178Z,99546.31
2023-04-05T01:07:28.968Z,99544.31
2023-04-05T01:10:17.414Z,99541.97
2023-04-05T01:13:03.845Z,99542.75
2023-04-05T01:15:49.565Z,99540.75
2023-04-05T01:18:36.496Z,99545.13
2023-04-05T01:21:40.043Z,99535.97
2023-04-05T01:24:46.820Z,99529.63
2023-04-05T01:27:58.255Z,99526.06
2023-04-05T01:30:51.294Z,99528.06
2023-04-05T01:34:02.276Z,99519.75
2023-04-05T01:36:54.764Z,99524.47
2023-04-05T01:39:41.242Z,99521.72
2023-04-05T01:42:27.240Z,99518.94
2023-04-05T01:45:12.604Z,99511.41
2023-04-05T01:47:58.023Z,99510.59
2023-04-05T01:50:43.614Z,99516.16
2023-04-05T01:53:29.172Z,99507.81
2023-04-05T01:56:14.468Z,99514.97
2023-04-05T01:58:59.719Z,99507.81
2023-04-05T02:01:44.963Z,99514.97
2023-04-05T02:04:30.395Z,99512.19
2023-04-05T02:07:15.742Z,99514.59
2023-04-05T02:10:01.451Z,99508.63
2023-04-05T02:12:46.637Z,99506.25
2023-04-05T02:15:33.233Z,99508.63
2023-04-05T02:18:22.431Z,99516.97
2023-04-05T02:21:10.722Z,99510.59
2023-04-05T02:23:56.168Z,99514.19
2023-04-05T02:26:41.878Z,99507.81
2023-04-05T02:29:27.079Z,99500.69
2023-04-05T02:32:12.346Z,99502.25
2023-04-05T02:34:58.876Z,99491.59
2023-04-05T02:37:44.535Z,99499.06
2023-04-05T02:40:29.810Z,99497.53
2023-04-05T02:43:15.369Z,99491.97
2023-04-05T02:46:00.818Z,99487.19
2023-04-05T02:48:46.543Z,99495.53
2023-04-05T02:51:34.575Z,99497.09
2023-04-05T02:54:23.794Z,99497.53
2023-04-05T02:57:16.307Z,99492.75
2023-04-05T03:00:13.217Z,99491.97
2023-04-05T03:02:59.382Z,99484.03
2023-04-05T03:05:47.207Z,99479.25
2023-04-05T03:08:33.620Z,99484.41
2023-04-05T03:11:21.734Z,99481.25
2023-04-05T03:14:12.168Z,99482.81
2023-04-05T03:17:03.373Z,99480.84
2023-04-05T03:19:54.688Z,99487.59
2023-04-05T03:22:43.570Z,99481.25
2023-04-05T03:25:30.415Z,99482.81
2023-04-05T03:28:18.346Z,99480.03
2023-04-05T03:31:08.302Z,99486.41
2023-04-05T03:33:53.595Z,99481.63
2023-04-05T03:36:42.302Z,99470.16
2023-04-05T03:39:38.378Z,99480.03
2023-04-05T03:42:24.411Z,99477.69
2023-04-05T03:45:10.859Z,99476.84
2023-04-05T03:47:57.089Z,99478.84
2023-04-05T03:50:42.507Z,99481.63
2023-04-05T03:53:29.607Z,99478.84
2023-04-05T03:56:15.795Z,99480.03
2023-04-05T03:59:04.842Z,99478.47
2023-04-05T04:01:51.192Z,99478.47
2023-04-05T04:04:38.603Z,99489.59
2023-04-05T04:07:24.568Z,99486.41
2023-04-05T04:10:12.310Z,99484.03
2023-04-05T04:12:57.695Z,99486.81
2023-04-05T04:15:47.187Z,99479.63
2023-04-05T04:18:43.763Z,99482.75
2023-04-05T04:21:51.669Z,99487.00
2023-04-05T04:24:37.528Z,99480.25
2023-04-05T04:27:50.398Z,99476.25
2023-04-05T04:30:56.056Z,99489.31
2023-04-05T04:34:02.357Z,99483.34
2023-04-05T04:37:03.946Z,99483.72
2023-04-05T04:40:18.322Z,99489.25
2023-04-05T04:43:42.840Z,99487.22
2023-04-05T04:46:46.139Z,99484.03
2023-04-05T04:49:34.818Z,99487.97
2023-04-05T04:52:20.218Z,99487.13
2023-04-05T04:55:09.205Z,99481.16
2023-04-05T04:57:55.614Z,99479.13
2023-04-05T05:00:45.145Z,99477.91
2023-04-05T05:03:30.592Z,99480.63
2023-04-05T05:06:22.171Z,99481.06
2023-04-05T05:09:07.959Z,99481.91
2023-04-05T05:12:02.616Z,99491.44
2023-04-05T05:14:48.250Z,99487.09
2023-04-05T05:17:34.875Z,99482.72
2023-04-05T05:20:21.441Z,99488.28
2023-04-05T05:23:06.988Z,99483.94
2023-04-05T05:25:58.346Z,99492.28
2023-04-05T05:28:44.119Z,99495.47
2023-04-05T05:31:29.462Z,99490.34
2023-04-05T05:34:14.797Z,99482.00
2023-04-05T05:37:06.851Z,99487.19
2023-04-05T05:39:54.529Z,99485.22
2023-04-05T05:42:40.042Z,99484.44
2023-04-05T05:45:25.702Z,99479.31
2023-04-05T05:48:14.086Z,99480.53
2023-04-05T05:51:06.550Z,99475.38
2023-04-05T05:53:51.808Z,99479.78
2023-04-05T05:56:37.169Z,99473.44
2023-04-05T05:59:22.692Z,99469.06
2023-04-05T06:02:08.220Z,99463.94
2023-04-05T06:04:55.074Z,99469.50
2023-04-05T06:07:40.871Z,99471.47
2023-04-05T06:10:26.479Z,99464.78
2023-04-05T06:13:12.155Z,99471.91
2023-04-05T06:15:57.378Z,99476.69
2023-04-05T06:18:43.914Z,99470.31
2023-04-05T06:21:29.322Z,99469.94
2023-04-05T06:24:14.781Z,99476.72
2023-04-05T06:27:00.077Z,99475.50
2023-04-05T06:29:45.485Z,99472.72
2023-04-05T06:32:30.852Z,99465.63
2023-04-05T06:35:17.035Z,99466.81
2023-04-05T06:38:02.359Z,99466.81
2023-04-05T06:40:48.169Z,99473.56
2023-04-05T06:43:33.528Z,99465.66
2023-04-05T06:46:19.025Z,99472.00
2023-04-05T06:49:04.686Z,99472.00
2023-04-05T06:51:50.026Z,99471.22
2023-04-05T06:54:39.005Z,99477.56
2023-04-05T06:57:24.466Z,99473.19
2023-04-05T07:00:13.395Z,99468.44
2023-04-05T07:02:58.680Z,99474.41
2023-04-05T07:05:53.647Z,99467.66
2023-04-05T07:08:39.037Z,99470.44
2023-04-05T07:11:24.260Z,99462.88
2023-04-05T07:14:09.721Z,99466.47
2023-04-05T07:16:54.954Z,99464.88
2023-04-05T07:19:40.354Z,99468.03
2023-04-05T07:22:25.925Z,99468.03
2023-04-05T07:25:11.773Z,99460.47
2023-04-05T07:27:57.299Z,99461.25
2023-04-05T07:30:42.783Z,99457.28
2023-04-05T07:33:28.441Z,99455.28
2023-04-05T07:36:13.708Z,99456.06
2023-04-05T07:38:59.102Z,99456.88
2023-04-05T07:41:46.523Z,99451.31
2023-04-05T07:44:31.686Z,99458.44
2023-04-05T07:47:17.169Z,99456.44
2023-04-05T07:50:03.592Z,99456.03
2023-04-05T07:52:52.449Z,99454.81
2023-04-05T07:55:38.267Z,99454.81
2023-04-05T07:58:23.788Z,99456.81
2023-04-05T08:01:10.644Z,99451.25
2023-04-05T08:03:59.271Z,99467.09
2023-04-05T08:06:45.077Z,99461.53
2023-04-05T08:09:30.578Z,99453.22
2023-04-05T08:12:16.172Z,99454.78
2023-04-05T08:15:01.668Z,99459.91
2023-04-05T08:17:47.141Z,99449.59
2023-04-05T08:20:32.633Z,99446.81
2023-04-05T08:23:18.172Z,99458.28
2023-04-05T08:26:04.007Z,99450.72
2023-04-05T08:28:49.358Z,99453.50
2023-04-05T08:31:34.562Z,99454.28
2023-04-05T08:34:21.813Z,99449.53
2023-04-05T08:37:07.622Z,99453.09
2023-04-05T08:39:52.823Z,99444.78
2023-04-05T08:42:45.945Z,99449.53
2023-04-05T08:45:34.265Z,99455.09
2023-04-05T08:48:20.671Z,99450.31
2023-04-05T08:51:06.174Z,99449.09
2023-04-05T08:53:53.065Z,99447.91
2023-04-05T08:56:38.931Z,99441.13
2023-04-05T08:59:24.698Z,99438.38
2023-04-05T09:02:19.334Z,99437.94
2023-04-05T09:05:09.319Z,99441.91
2023-04-05T09:07:58.461Z,99443.50
2023-04-05T09:10:44.680Z,99447.06
2023-04-05T09:13:31.629Z,99448.69
2023-04-05T09:16:17.803Z,99447.09
2023-04-05T09:19:03.114Z,99440.78
2023-04-05T09:22:01.085Z,99448.31
2023-04-05T09:24:47.120Z,99451.88
2023-04-05T09:27:36.126Z,99441.56
2023-04-05T09:30:22.753Z,99441.13
2023-04-05T09:33:10.565Z,99446.69
2023-04-05T09:35:56.301Z,99434.81
2023-04-05T09:38:45.919Z,99438.00
2023-04-05T09:41:31.966Z,99448.69
2023-04-05T09:44:17.523Z,99435.22
2023-04-05T09:47:16.191Z,99436.81
2023-04-05T09:50:06.222Z,99447.09
2023-04-05T09:52:52.579Z,99436.00
2023-04-05T09:55:38.136Z,99436.81
2023-04-05T09:58:23.862Z,99439.16
2023-04-05T10:01:16.774Z,99432.81
2023-04-05T10:04:03.227Z,99437.16
2023-04-05T10:06:49.050Z,99434.41
2023-04-05T10:09:35.567Z,99429.63
2023-04-05T10:12:28.641Z,99435.59
2023-04-05T10:15:14.412Z,99438.38
2023-04-05T10:18:13.483Z,99434.41
2023-04-05T10:21:01.287Z,99428.03
2023-04-05T10:23:53.106Z,99430.81
2023-04-05T10:27:07.417Z,99433.59
2023-04-05T10:30:05.264Z,99429.25
2023-04-05T10:33:12.352Z,99424.88
2023-04-05T10:36:06.835Z,99426.88
2023-04-05T10:39:05.301Z,99424.09
2023-04-05T10:42:00.264Z,99433.22
2023-04-05T10:44:51.694Z,99424.09
2023-04-05T10:47:45.156Z,99425.69
2023-04-05T10:50:32.549Z,99421.31
2023-04-05T10:53:20.948Z,99419.31
2023-04-05T10:56:07.170Z,99417.75
2023-04-05T10:58:54.114Z,99428.09
2023-04-05T11:01:41.096Z,99424.94
2023-04-05T11:04:26.569Z,99415.03
2023-04-05T11:07:16.684Z,99414.25
2023-04-05T11:10:05.120Z,99413.06
2023-04-05T11:12:53.391Z,99404.34
2023-04-05T11:15:39.939Z,99407.50
2023-04-05T11:18:25.938Z,99402.72
2023-04-05T11:21:11.177Z,99407.06
2023-04-05T11:24:12.028Z,99402.72
2023-04-05T11:26:57.924Z,99394.75
2023-04-05T11:29:49.782Z,99399.09
2023-04-05T11:32:39.682Z,99386.78
2023-04-05T11:35:25.151Z,99382.38
2023-04-05T11:38:10.530Z,99384.38
2023-04-05T11:41:17.778Z,99383.56
2023-04-05T11:44:05.843Z,99381.16
2023-04-05T11:46:54.199Z,99380.38
2023-04-05T11:49:40.778Z,99383.16
2023-04-05T11:52:26.103Z,99367.25
2023-04-05T11:55:11.927Z,99381.59
2023-04-05T11:57:57.312Z,99381.16
2023-04-05T12:00:43.424Z,99373.25
2023-04-05T12:03:30.017Z,99381.59
2023-04-05T12:06:15.469Z,99382.78
2023-04-05T12:09:00.821Z,99378.00
2023-04-05T12:11:46.266Z,99386.78
2023-04-05T12:14:32.694Z,99382.00
2023-04-05T12:17:17.924Z,99374.44
2023-04-05T12:20:04.069Z,99363.69
2023-04-05T12:22:51.882Z,99366.47
2023-04-05T12:25:39.073Z,99374.41
2023-04-05T12:28:26.393Z,99366.47
2023-04-05T12:31:12.053Z,99369.25
2023-04-05T12:33:59.508Z,99374.81
2023-04-05T12:36:46.671Z,99365.69
2023-04-05T12:39:33.239Z,99369.66
2023-04-05T12:42:18.535Z,99364.13
2023-04-05T12:45:12.706Z,99370.13
2023-04-05T12:48:00.051Z,99374.09
2023-04-05T12:50:52.054Z,99379.63
2023-04-05T12:53:46.187Z,99372.53
2023-04-05T12:56:32.556Z,99370.94
2023-04-05T12:59:18.082Z,99370.56
2023-04-05T13:02:03.458Z,99364.22
2023-04-05T13:04:48.560Z,99361.88
2023-04-05T13:07:36.383Z,99367.00
2023-04-05T13:10:34.017Z,99363.81
2023-04-05T13:13:23.992Z,99355.84
2023-04-05T13:16:10.437Z,99349.81
2023-04-05T13:18:57.196Z,99349.75
2023-04-05T13:21:43.821Z,99356.03
2023-04-05T13:24:29.732Z,99355.63
2023-04-05T13:27:16.879Z,99354.78
2023-04-05T13:30:04.981Z,99357.94
2023-04-05T13:32:50.783Z,99355.53
2023-04-05T13:35:36.456Z,99357.88
2023-04-05T13:38:21.877Z,99340.00
2023-04-05T13:41:07.337Z,99342.34
2023-04-05T13:43:52.875Z,99342.72
2023-04-05T13:46:38.506Z,99337.16
2023-04-05T13:49:24.035Z,99336.75
2023-04-05T13:52:09.723Z,99343.44
2023-04-05T13:55:01.805Z,99335.47
2023-04-05T13:57:49.693Z,99336.25
2023-04-05T14:00:34.981Z,99325.91
2023-04-05T14:03:20.211Z,99330.63
2023-04-05T14:06:05.732Z,99324.22
2023-04-05T14:08:55.628Z,99321.84
2023-04-05T14:11:42.247Z,99324.22
2023-04-05T14:14:29.380Z,99315.81
2023-04-05T14:17:15.723Z,99313.81
2023-04-05T14:20:01.715Z,99313.69
2023-04-05T14:22:48.010Z,99303.69
2023-04-05T14:25:33.294Z,99305.66
2023-04-05T14:28:18.599Z,99298.88
2023-04-05T14:31:04.365Z,99304.00
2023-04-05T14:33:49.824Z,99309.56
2023-04-05T14:36:36.465Z,99303.16
2023-04-05T14:39:22.395Z,99304.72
2023-04-05T14:42:07.802Z,99307.84
2023-04-05T14:44:53.268Z,99300.66
2023-04-05T14:47:38.575Z,99293.47
2023-04-05T14:50:24.585Z,99306.50
2023-04-05T14:53:10.614Z,99297.31
2023-04-05T14:55:56.245Z,99301.66
2023-04-05T14:58:41.991Z,99292.53
2023-04-05T15:01:28.296Z,99299.66
2023-04-05T15:04:14.337Z,99292.09
2023-04-05T15:07:00.125Z,99299.25
2023-04-05T15:09:45.839Z,99292.09
2023-04-05T15:12:34.689Z,99289.31
2023-04-05T15:15:20.797Z,99290.91
2023-04-05T15:18:08.203Z,99292.81
2023-04-05T15:20:53.816Z,99288.84
2023-04-05T15:23:39.470Z,99286.41
2023-04-05T15:26:25.434Z,99287.59
2023-04-05T15:29:11.139Z,99280.84
2023-04-05T15:31:57.903Z,99283.97
2023-04-05T15:34:43.308Z,99290.75
2023-04-05T15:37:28.858Z,99285.13
2023-04-05T15:40:14.309Z,99280.69
2023-04-05T15:42:59.944Z,99285.47
2023-04-05T15:45:45.363Z,99277.91
2023-04-05T15:48:31.100Z,99281.88
2023-04-05T15:51:17.004Z,99288.69
2023-04-05T15:54:03.311Z,99284.31
2023-04-05T15:56:49.193Z,99285.19
2023-04-05T15:59:34.564Z,99281.63
2023-04-05T16:02:20.480Z,99278.84
2023-04-05T16:05:06.965Z,99284.47
2023-04-05T16:07:52.757Z,99290.03
2023-04-05T16:10:38.424Z,99282.91
2023-04-05T16:13:24.316Z,99286.53
2023-04-05T16:16:29.929Z,99284.19
2023-04-05T16:19:20.361Z,99281.41
2023-04-05T16:22:06.765Z,99284.19
2023-04-05T16:24:52.162Z,99286.88
2023-04-05T16:27:38.521Z,99279.41
2023-04-05T16:30:24.156Z,99284.59
2023-04-05T16:33:10.521Z,99286.19
2023-04-05T16:35:56.335Z,99280.28
2023-04-05T16:38:43.778Z,99279.91
2023-04-05T16:41:30.625Z,99289.47
2023-04-05T16:44:16.743Z,99288.69
2023-04-05T16:47:02.828Z,99284.25
2023-04-05T16:49:48.585Z,99286.69
2023-04-05T16:52:34.010Z,99285.53
2023-04-05T16:55:20.091Z,99270.44
2023-04-05T16:58:06.110Z,99281.09
2023-04-05T17:00:55.651Z,99279.91
2023-04-05T17:03:42.336Z,99281.06
2023-04-05T17:06:28.179Z,99285.75
2023-04-05T17:09:13.651Z,99281.25
2023-04-05T17:11:59.336Z,99284.75
2023-04-05T17:14:44.839Z,99285.19
2023-04-05T17:17:30.572Z,99285.91
2023-04-05T17:20:16.200Z,99283.53
2023-04-05T17:23:01.843Z,99287.53
2023-04-05T17:25:47.462Z,99279.56
2023-04-05T17:28:33.397Z,99292.25
2023-04-05T17:31:19.398Z,99295.38
2023-04-05T17:34:04.639Z,99294.59
2023-04-05T17:36:49.940Z,99296.59
2023-04-05T17:39:35.753Z,99298.16
2023-04-05T17:42:21.645Z,99299.38
2023-04-05T17:45:08.123Z,99301.38
2023-04-05T17:47:54.212Z,99299.44
2023-04-05T17:50:39.535Z,99304.59
2023-04-05T17:53:25.762Z,99305.44
2023-04-05T17:56:11.415Z,99305.06
2023-04-05T17:58:59.397Z,99316.22
2023-04-05T18:01:51.505Z,99315.84
2023-04-05T18:04:40.394Z,99319.44
2023-04-05T18:07:27.274Z,99321.00
2023-04-05T18:10:13.115Z,99324.19
2023-04-05T18:12:58.838Z,99325.00
2023-04-05T18:15:44.132Z,99331.28
2023-04-05T18:18:29.422Z,99330.94
2023-04-05T18:21:14.951Z,99332.47
2023-04-05T18:24:00.166Z,99334.47
2023-04-05T18:26:45.826Z,99337.63
2023-04-05T18:29:33.010Z,99343.19
2023-04-05T18:32:18.591Z,99343.59
2023-04-05T18:35:04.667Z,99349.59
2023-04-05T18:37:50.158Z,99347.69
2023-04-05T18:40:35.771Z,99348.09
2023-04-05T18:43:20.991Z,99350.97
2023-04-05T18:46:06.554Z,99355.75
2023-04-05T18:48:55.090Z,99353.81
2023-04-05T18:51:40.506Z,99358.22
2023-04-05T18:54:26.157Z,99358.28
2023-04-05T18:57:11.758Z,99360.69
2023-04-05T18:59:57.100Z,99352.44
2023-04-05T19:02:42.443Z,99361.19
2023-04-05T19:05:27.762Z,99367.19
2023-04-05T19:08:14.273Z,99362.47
2023-04-05T19:10:59.777Z,99365.66
2023-04-05T19:13:46.350Z,99362.97
2023-04-05T19:16:32.107Z,99362.19
2023-04-05T19:19:18.969Z,99367.03
2023-04-05T19:22:04.496Z,99370.63
2023-04-05T19:24:49.965Z,99373.06
2023-04-05T19:27:35.385Z,99369.94
2023-04-05T19:30:21.098Z,99376.69
2023-04-05T19:33:06.470Z,99376.31
2023-04-05T19:35:52.018Z,99373.16
2023-04-05T19:38:39.578Z,99375.16
2023-04-05T19:41:25.249Z,99372.03
2023-04-05T19:44:12.138Z,99371.25
2023-04-05T19:46:57.499Z,99368.09
2023-04-05T19:49:42.925Z,99374.53
2023-04-05T19:52:31.438Z,99373.72
2023-04-05T19:55:34.500Z,99372.94
2023-04-05T19:58:27.822Z,99370.59
2023-04-05T20:01:32.298Z,99373.00
2023-04-05T20:04:20.187Z,99369.88
2023-04-05T20:07:08.146Z,99371.47
2023-04-05T20:09:54.499Z,99364.69
2023-04-05T20:12:39.798Z,99363.13
2023-04-05T20:15:38.513Z,99362.75
2023-04-05T20:18:25.984Z,99361.16
2023-04-05T20:21:12.076Z,99356.03
2023-04-05T20:23:58.622Z,99352.09
2023-04-05T20:26:44.113Z,99357.66
2023-04-05T20:29:32.412Z,99352.94
2023-04-05T20:32:18.627Z,99352.94
2023-04-05T20:35:08.810Z,99351.41
2023-04-05T20:37:54.054Z,99345.47
2023-04-05T20:40:39.299Z,99350.22
2023-04-05T20:43:24.634Z,99350.66
2023-04-05T20:46:10.538Z,99351.47
2023-04-05T20:48:57.391Z,99334.88
2023-04-05T20:51:43.240Z,99338.44
2023-04-05T20:54:29.149Z,99340.00
2023-04-05T20:57:14.765Z,99330.09
2023-04-05T21:00:02.283Z,99337.66
2023-04-05T21:02:48.208Z,99344.00
2023-04-05T21:05:33.412Z,99328.53
2023-04-05T21:08:18.708Z,99337.66
2023-04-05T21:11:04.695Z,99334.88
2023-04-05T21:13:50.054Z,99332.88
2023-04-05T21:16:35.643Z,99324.97
2023-04-05T21:19:21.115Z,99327.75
2023-04-05T21:22:06.376Z,99331.31
2023-04-05T21:24:51.656Z,99332.53
2023-04-05T21:27:36.904Z,99336.84
2023-04-05T21:30:22.260Z,99336.09
2023-04-05T21:33:07.781Z,99332.53
2023-04-05T21:35:53.310Z,99329.75
2023-04-05T21:38:38.789Z,99329.75
2023-04-05T21:41:23.953Z,99330.16
2023-04-05T21:44:09.281Z,99326.97
2023-04-05T21:46:54.870Z,99323.41
2023-04-05T21:49:41.868Z,99321.81
2023-04-05T21:52:27.220Z,99325.44
2023-04-05T21:55:12.867Z,99320.69
2023-04-05T21:57:58.544Z,99314.34
2023-04-05T22:00:43.978Z,99308.00
2023-04-05T22:03:29.269Z,99305.22
2023-04-05T22:06:14.633Z,99310.78
2023-04-05T22:08:59.929Z,99311.97
2023-04-05T22:11:46.044Z,99308.41
2023-04-05T22:14:31.541Z,99316.75
2023-04-05T22:17:18.342Z,99309.19
2023-04-05T22:20:04.091Z,99304.84
2023-04-05T22:22:49.694Z,99310.41
2023-04-05T22:25:34.949Z,99308.81
2023-04-05T22:28:21.661Z,99307.63
2023-04-05T22:31:07.165Z,99311.59
2023-04-05T22:33:52.577Z,99308.06
2023-04-05T22:36:37.719Z,99310.06
2023-04-05T22:39:23.127Z,99310.81
2023-04-05T22:42:08.431Z,99300.94
2023-04-05T22:44:53.754Z,99304.50
2023-04-05T22:47:39.210Z,99295.78
2023-04-05T22:50:24.509Z,99298.56
2023-04-05T22:53:10.017Z,99301.34
2023-04-05T22:55:55.486Z,99305.34
2023-04-05T22:58:41.013Z,99299.78
2023-04-05T23:01:26.614Z,99301.75
2023-04-05T23:04:12.053Z,99305.34
2023-04-05T23:06:57.423Z,99297.00
2023-04-05T23:09:42.672Z,99300.97
2023-04-05T23:12:28.077Z,99298.97
2023-04-05T23:15:14.176Z,99299.78
2023-04-05T23:17:59.762Z,99304.53
2023-04-05T23:20:45.382Z,99308.53
2023-04-05T23:23:31.044Z,99306.16
2023-04-05T23:26:16.639Z,99300.63
2023-04-05T23:29:02.279Z,99303.38
2023-04-05T23:31:48.365Z,99300.63
2023-04-05T23:34:33.727Z,99310.16
2023-04-05T23:37:19.097Z,99307.75
2023-04-05T23:40:05.016Z,99302.19
2023-04-05T23:42:51.018Z,99297.84
2023-04-05T23:45:36.487Z,99295.06
2023-04-05T23:48:21.812Z,99300.63
2023-04-05T23:51:07.103Z,99290.72
2023-04-05T23:53:52.750Z,99297.84
2023-04-05T23:56:38.379Z,99285.94
2023-04-05T23:59:23.645Z,99295.06
